createdAt,value
2018-07-28T00:02:21.149Z,24.09
2018-07-28T00:04:51.030Z,23.79
2018-07-28T00:07:20.287Z,23.80
2018-07-28T00:09:55.949Z,23.98
2018-07-28T00:12:30.161Z,23.69
2018-07-28T00:15:00.711Z,23.57
2018-07-28T00:17:34.361Z,23.58
2018-07-28T00:20:04.401Z,23.37
2018-07-28T00:22:33.845Z,23.37
2018-07-28T00:25:03.024Z,23.61
2018-07-28T00:27:34.545Z,23.26
2018-07-28T00:30:04.083Z,23.16
2018-07-28T00:32:38.117Z,23.31
2018-07-28T00:35:07.463Z,23.27
2018-07-28T00:37:36.816Z,22.96
2018-07-28T00:40:06.083Z,23.10
2018-07-28T00:42:35.609Z,23.09
2018-07-28T00:45:05.409Z,22.99
2018-07-28T00:47:34.494Z,22.92
2018-07-28T00:50:03.875Z,23.25
2018-07-28T00:52:34.057Z,23.25
2018-07-28T00:55:05.614Z,23.29
2018-07-28T00:57:34.805Z,23.26
2018-07-28T01:00:04.007Z,23.04
2018-07-28T01:02:33.220Z,22.81
2018-07-28T01:05:02.420Z,22.77
2018-07-28T01:07:31.523Z,22.57
2018-07-28T01:10:00.746Z,22.74
2018-07-28T01:12:30.641Z,22.58
2018-07-28T01:28:03.907Z,22.47
2018-07-28T01:30:33.351Z,22.52
2018-07-28T01:33:03.179Z,22.37
2018-07-28T01:35:32.664Z,22.30
2018-07-28T01:38:03.487Z,22.30
2018-07-28T01:40:32.661Z,22.27
2018-07-28T01:43:03.735Z,22.22
2018-07-28T01:45:33.420Z,22.29
2018-07-28T01:48:02.732Z,22.37
2018-07-28T01:50:32.136Z,22.60
2018-07-28T01:53:01.193Z,22.58
2018-07-28T01:55:30.374Z,22.57
2018-07-28T01:57:59.746Z,22.44
2018-07-28T02:00:28.977Z,22.52
2018-07-28T02:02:58.160Z,22.37
2018-07-28T02:05:27.399Z,22.46
2018-07-28T02:07:56.553Z,22.31
2018-07-28T02:10:25.736Z,22.09
2018-07-28T02:12:54.958Z,22.01
2018-07-28T02:15:24.807Z,22.05
2018-07-28T02:17:55.976Z,21.91
2018-07-28T02:20:35.504Z,21.87
2018-07-28T02:23:04.691Z,21.72
2018-07-28T02:25:36.238Z,21.94
2018-07-28T02:41:05.537Z,21.63
2018-07-28T02:43:35.425Z,21.72
2018-07-28T02:46:04.797Z,21.66
2018-07-28T02:48:34.720Z,21.63
2018-07-28T02:51:03.931Z,21.63
2018-07-28T02:53:33.627Z,21.76
2018-07-28T02:56:02.937Z,21.99
2018-07-28T02:58:37.823Z,21.75
2018-07-28T03:01:07.929Z,21.74
2018-07-28T03:03:37.840Z,21.60
2018-07-28T03:06:06.950Z,21.56
2018-07-28T03:08:36.479Z,21.49
2018-07-28T03:11:05.615Z,21.41
2018-07-28T03:13:34.731Z,21.47
2018-07-28T03:16:11.094Z,21.48
2018-07-28T03:18:40.296Z,21.27
2018-07-28T03:21:09.442Z,21.26
2018-07-28T03:23:38.652Z,21.40
2018-07-28T03:26:08.137Z,21.36
2018-07-28T03:31:20.373Z,21.52
2018-07-28T03:33:49.573Z,21.56
2018-07-28T03:36:19.787Z,21.48
2018-07-28T03:38:49.208Z,21.47
2018-07-28T03:41:19.125Z,21.46
2018-07-28T03:43:48.385Z,21.40
2018-07-28T03:46:17.493Z,21.37
2018-07-28T03:48:47.202Z,21.44
2018-07-28T03:51:16.393Z,21.41
2018-07-28T03:53:45.726Z,21.43
2018-07-28T03:56:14.815Z,21.41
2018-07-28T03:58:44.285Z,21.50
2018-07-28T04:01:13.453Z,21.52
2018-07-28T04:03:42.539Z,21.58
2018-07-28T04:06:11.791Z,21.66
2018-07-28T04:08:47.297Z,21.54
2018-07-28T04:11:16.387Z,21.58
2018-07-28T04:13:45.479Z,21.50
2018-07-28T04:16:15.218Z,21.53
2018-07-28T04:18:44.279Z,21.75
2018-07-28T04:21:17.653Z,21.73
2018-07-28T04:23:46.686Z,21.78
2018-07-28T04:26:16.221Z,21.70
2018-07-28T04:28:46.012Z,21.72
2018-07-28T04:31:15.723Z,21.71
2018-07-28T04:33:44.861Z,21.85
2018-07-28T04:36:15.588Z,22.01
2018-07-28T04:38:44.873Z,21.98
2018-07-28T04:41:14.105Z,22.03
2018-07-28T04:43:43.355Z,22.23
2018-07-28T04:46:13.489Z,22.43
2018-07-28T04:48:43.036Z,22.46
2018-07-28T04:51:12.246Z,22.73
2018-07-28T04:53:44.645Z,22.66
2018-07-28T04:56:13.767Z,22.83
2018-07-28T04:58:43.145Z,22.64
2018-07-28T05:01:13.075Z,22.50
2018-07-28T05:03:42.447Z,22.45
2018-07-28T05:06:11.803Z,22.72
2018-07-28T05:08:41.927Z,22.85
2018-07-28T05:11:11.197Z,22.81
2018-07-28T05:13:40.308Z,22.87
2018-07-28T05:16:09.416Z,22.98
2018-07-28T05:18:38.806Z,23.27
2018-07-28T05:21:08.044Z,23.13
2018-07-28T05:23:37.628Z,23.22
2018-07-28T05:26:06.652Z,23.27
2018-07-28T05:28:36.247Z,23.34
2018-07-28T05:31:05.292Z,23.39
2018-07-28T05:33:35.360Z,23.47
2018-07-28T05:36:04.508Z,23.64
2018-07-28T05:38:33.608Z,23.93
2018-07-28T05:41:02.800Z,23.83
2018-07-28T05:43:31.998Z,23.97
2018-07-28T05:46:01.065Z,24.09
2018-07-28T05:48:30.130Z,24.32
2018-07-28T05:50:59.222Z,24.47
2018-07-28T05:53:28.334Z,24.43
2018-07-28T05:55:57.686Z,24.51
2018-07-28T05:58:26.722Z,24.73
2018-07-28T06:00:55.875Z,24.84
2018-07-28T06:03:24.945Z,24.88
2018-07-28T06:05:54.134Z,24.79
2018-07-28T06:08:23.774Z,24.97
2018-07-28T06:10:53.091Z,25.11
2018-07-28T06:13:22.186Z,25.29
2018-07-28T06:15:51.364Z,25.39
2018-07-28T06:18:20.574Z,25.60
2018-07-28T06:20:49.774Z,25.75
2018-07-28T06:23:18.937Z,25.58
2018-07-28T06:25:48.918Z,25.74
2018-07-28T06:28:19.160Z,25.83
2018-07-28T06:30:48.481Z,25.99
2018-07-28T06:33:18.728Z,25.89
2018-07-28T06:35:48.556Z,26.03
2018-07-28T06:38:17.812Z,25.96
2018-07-28T06:40:47.059Z,25.98
2018-07-28T06:43:16.159Z,26.17
2018-07-28T06:45:45.438Z,26.11
2018-07-28T06:48:14.546Z,26.29
2018-07-28T06:50:43.728Z,26.19
2018-07-28T06:53:13.047Z,26.37
2018-07-28T06:55:42.178Z,26.26
2018-07-28T06:58:11.370Z,26.26
2018-07-28T07:00:40.544Z,26.32
2018-07-28T07:03:09.827Z,26.38
2018-07-28T07:05:39.053Z,26.57
2018-07-28T07:08:08.721Z,26.65
2018-07-28T07:10:37.778Z,26.78
2018-07-28T07:13:06.927Z,26.76
2018-07-28T07:15:36.107Z,27.04
2018-07-28T07:18:05.202Z,27.23
2018-07-28T07:20:34.349Z,27.08
2018-07-28T07:23:03.588Z,27.05
2018-07-28T07:25:32.809Z,26.91
2018-07-28T07:28:02.002Z,26.96
2018-07-28T07:30:31.206Z,27.21
2018-07-28T07:33:00.918Z,27.44
2018-07-28T07:35:30.015Z,27.27
2018-07-28T07:37:59.213Z,27.06
2018-07-28T07:40:28.357Z,27.30
2018-07-28T07:42:57.777Z,27.28
2018-07-28T07:45:26.981Z,27.46
2018-07-28T07:47:56.105Z,27.47
2018-07-28T07:50:29.834Z,27.73
2018-07-28T07:52:59.655Z,27.67
2018-07-28T07:55:30.912Z,27.77
2018-07-28T07:58:00.067Z,27.93
2018-07-28T08:00:29.301Z,27.89
2018-07-28T08:02:58.633Z,27.91
2018-07-28T08:05:35.619Z,27.91
2018-07-28T08:08:04.956Z,27.97
2018-07-28T08:23:34.159Z,28.01
2018-07-28T08:26:03.395Z,28.05
2018-07-28T08:28:32.520Z,28.20
2018-07-28T08:31:01.620Z,28.29
2018-07-28T08:33:30.839Z,28.46
2018-07-28T08:36:00.046Z,28.56
2018-07-28T08:38:29.488Z,28.39
2018-07-28T08:40:58.826Z,28.53
2018-07-28T08:43:28.058Z,28.62
2018-07-28T08:46:03.790Z,28.64
2018-07-28T08:48:32.953Z,28.68
2018-07-28T08:51:02.649Z,28.66
2018-07-28T08:53:32.451Z,28.60
2018-07-28T08:56:01.617Z,28.66
2018-07-28T08:58:30.740Z,28.66
2018-07-28T09:01:00.099Z,28.68
2018-07-28T09:03:29.196Z,28.80
2018-07-28T09:05:58.618Z,28.86
2018-07-28T09:08:27.926Z,29.02
2018-07-28T09:10:57.236Z,29.05
2018-07-28T09:13:28.448Z,29.14
2018-07-28T09:15:58.438Z,29.24
2018-07-28T09:18:27.634Z,29.50
2018-07-28T09:20:56.763Z,29.69
2018-07-28T09:23:26.392Z,29.68
2018-07-28T09:26:00.477Z,29.96
2018-07-28T09:28:30.800Z,29.74
2018-07-28T09:31:01.472Z,29.84
2018-07-28T09:33:32.377Z,30.22
2018-07-28T09:36:01.626Z,30.38
2018-07-28T09:38:33.361Z,30.72
2018-07-28T09:41:02.878Z,30.78
2018-07-28T09:43:36.782Z,30.84
2018-07-28T09:46:06.542Z,30.78
2018-07-28T09:48:35.726Z,31.00
2018-07-28T09:51:05.135Z,30.85
2018-07-28T09:53:34.806Z,31.15
2018-07-28T09:56:04.379Z,31.02
2018-07-28T09:58:33.731Z,31.02
2018-07-28T10:01:09.563Z,31.17
2018-07-28T10:03:38.842Z,31.24
2018-07-28T10:06:13.474Z,30.95
2018-07-28T10:08:57.766Z,30.79
2018-07-28T10:11:27.866Z,31.14
2018-07-28T10:14:05.937Z,31.22
2018-07-28T10:16:51.828Z,31.34
2018-07-28T10:22:03.513Z,30.62
2018-07-28T10:40:50.070Z,30.58
2018-07-28T10:43:21.590Z,30.65
2018-07-28T10:45:56.229Z,30.82
2018-07-28T10:48:32.593Z,30.89
2018-07-28T10:51:02.294Z,30.78
2018-07-28T10:53:33.710Z,31.15
2018-07-28T10:56:03.539Z,30.93
2018-07-28T10:58:33.279Z,31.38
2018-07-28T11:01:02.590Z,31.55
2018-07-28T11:03:31.827Z,31.49
2018-07-28T11:06:01.305Z,31.64
2018-07-28T11:08:30.495Z,31.30
2018-07-28T11:11:04.409Z,31.30
2018-07-28T11:13:33.773Z,31.00
2018-07-28T11:16:03.363Z,31.34
2018-07-28T11:18:35.316Z,31.41
2018-07-28T11:21:04.993Z,31.43
2018-07-28T11:23:46.223Z,31.42
2018-07-28T11:26:21.396Z,31.49
2018-07-28T11:28:51.777Z,31.65
2018-07-28T11:31:32.892Z,31.84
2018-07-28T11:34:13.455Z,31.94
2018-07-28T11:36:57.296Z,32.13
2018-07-28T11:39:37.921Z,32.19
2018-07-28T11:42:18.483Z,32.15
2018-07-28T11:45:25.198Z,32.51
2018-07-28T11:47:54.730Z,32.40
2018-07-28T11:50:24.604Z,32.48
2018-07-28T11:52:53.696Z,32.44
2018-07-28T11:55:22.984Z,32.76
2018-07-28T11:57:52.156Z,32.62
2018-07-28T12:00:22.699Z,32.89
2018-07-28T12:02:53.426Z,32.84
2018-07-28T12:05:23.174Z,33.20
2018-07-28T12:07:53.102Z,33.19
2018-07-28T12:10:22.786Z,33.35
2018-07-28T12:12:51.981Z,33.16
2018-07-28T12:15:24.856Z,33.45
2018-07-28T12:17:56.368Z,33.35
2018-07-28T12:20:25.938Z,33.82
2018-07-28T12:22:55.603Z,33.47
2018-07-28T12:25:25.151Z,32.82
2018-07-28T12:27:55.457Z,32.81
2018-07-28T12:30:26.503Z,32.38
2018-07-28T12:32:57.747Z,32.55
2018-07-28T12:35:27.711Z,32.43
2018-07-28T12:37:56.868Z,32.82
2018-07-28T12:40:25.944Z,32.58
2018-07-28T12:42:55.890Z,32.84
2018-07-28T12:45:25.587Z,33.05
2018-07-28T12:47:54.957Z,33.36
2018-07-28T12:50:25.340Z,33.31
2018-07-28T12:52:55.498Z,32.90
2018-07-28T12:55:25.162Z,32.73
2018-07-28T12:57:54.617Z,32.53
2018-07-28T13:00:25.073Z,32.35
2018-07-28T13:02:54.196Z,32.23
2018-07-28T13:05:23.653Z,32.44
2018-07-28T13:07:53.336Z,32.25
2018-07-28T13:10:22.614Z,32.54
2018-07-28T13:12:52.010Z,32.55
2018-07-28T13:15:22.005Z,32.62
2018-07-28T13:17:51.425Z,32.63
2018-07-28T13:20:20.780Z,32.47
2018-07-28T13:22:50.134Z,32.52
2018-07-28T13:25:19.469Z,32.28
2018-07-28T13:27:52.490Z,32.30
2018-07-28T13:30:22.663Z,32.28
2018-07-28T13:32:56.160Z,32.45
2018-07-28T13:35:37.856Z,32.48
2018-07-28T13:38:10.919Z,32.09
2018-07-28T13:40:41.342Z,32.31
2018-07-28T13:43:14.679Z,32.54
2018-07-28T13:45:46.896Z,32.71
2018-07-28T13:58:01.071Z,32.37
2018-07-28T14:00:30.249Z,32.53
2018-07-28T14:03:00.637Z,32.64
2018-07-28T14:05:29.768Z,32.80
2018-07-28T14:07:58.948Z,33.21
2018-07-28T14:10:28.043Z,33.27
2018-07-28T14:12:57.174Z,33.57
2018-07-28T14:15:26.528Z,33.58
2018-07-28T14:17:57.498Z,33.31
2018-07-28T14:20:26.697Z,33.41
2018-07-28T14:23:06.450Z,33.14
2018-07-28T14:25:35.780Z,33.13
2018-07-28T14:28:05.005Z,32.91
2018-07-28T14:30:34.237Z,33.16
2018-07-28T14:33:03.579Z,33.01
2018-07-28T14:35:32.797Z,33.19
2018-07-28T14:38:02.058Z,33.25
2018-07-28T14:40:31.133Z,33.54
2018-07-28T14:43:00.257Z,33.40
2018-07-28T14:45:29.321Z,33.27
2018-07-28T14:47:58.591Z,33.42
2018-07-28T14:50:27.717Z,33.53
2018-07-28T14:52:57.094Z,33.32
2018-07-28T14:55:26.175Z,33.10
2018-07-28T14:57:55.289Z,32.74
2018-07-28T15:00:24.445Z,32.81
2018-07-28T15:02:53.640Z,32.83
2018-07-28T15:05:22.735Z,32.74
2018-07-28T15:07:52.135Z,32.74
2018-07-28T15:10:21.213Z,32.56
2018-07-28T15:12:50.625Z,32.62
2018-07-28T15:15:20.142Z,32.79
2018-07-28T15:17:49.534Z,32.86
2018-07-28T15:20:18.653Z,32.77
2018-07-28T15:22:48.963Z,33.13
2018-07-28T15:25:18.660Z,32.97
2018-07-28T15:27:52.571Z,33.25
2018-07-28T15:30:22.267Z,33.19
2018-07-28T15:33:08.460Z,33.44
2018-07-28T15:35:37.689Z,33.77
2018-07-28T15:38:06.838Z,33.84
2018-07-28T15:40:36.709Z,33.62
2018-07-28T15:43:06.025Z,33.88
2018-07-28T15:45:35.501Z,33.77
2018-07-28T15:48:04.634Z,34.07
2018-07-28T15:50:35.090Z,34.27
2018-07-28T15:53:04.258Z,34.12
2018-07-28T15:55:33.531Z,34.09
2018-07-28T15:58:02.919Z,34.22
2018-07-28T16:00:32.127Z,35.27
2018-07-28T16:03:03.820Z,36.23
2018-07-28T16:18:33.096Z,37.12
2018-07-28T16:21:03.321Z,37.83
2018-07-28T16:23:36.824Z,38.17
2018-07-28T16:26:07.326Z,39.04
2018-07-28T16:28:36.910Z,39.11
2018-07-28T16:31:07.236Z,38.35
2018-07-28T16:33:38.019Z,37.97
2018-07-28T16:49:07.305Z,36.42
2018-07-28T16:51:36.800Z,35.77
2018-07-28T16:54:06.115Z,35.34
2018-07-28T16:56:35.383Z,35.13
2018-07-28T16:59:04.592Z,35.08
2018-07-28T17:01:33.736Z,34.86
2018-07-28T17:04:02.901Z,34.26
2018-07-28T17:06:32.097Z,33.84
2018-07-28T17:09:01.284Z,33.94
2018-07-28T17:11:30.492Z,33.80
2018-07-28T17:13:59.791Z,33.54
2018-07-28T17:16:29.279Z,33.26
2018-07-28T17:18:59.169Z,33.07
2018-07-28T17:21:28.631Z,32.87
2018-07-28T17:23:57.795Z,32.71
2018-07-28T17:26:31.435Z,32.69
2018-07-28T17:29:01.455Z,32.42
2018-07-28T17:31:31.521Z,32.29
2018-07-28T17:34:00.754Z,31.98
2018-07-28T17:36:29.968Z,31.83
2018-07-28T17:38:59.092Z,31.39
2018-07-28T17:41:29.101Z,30.44
2018-07-28T17:44:03.007Z,29.84
2018-07-28T17:46:32.247Z,29.30
2018-07-28T17:49:01.581Z,29.03
2018-07-28T17:51:30.892Z,28.84
2018-07-28T17:54:00.065Z,28.58
2018-07-28T17:56:29.414Z,28.19
2018-07-28T17:58:59.494Z,28.05
2018-07-28T18:01:31.872Z,27.77
2018-07-28T18:04:02.005Z,27.55
2018-07-28T18:06:31.148Z,27.15
2018-07-28T18:09:00.494Z,27.12
2018-07-28T18:11:30.416Z,27.25
2018-07-28T18:14:06.022Z,27.04
2018-07-28T18:16:35.207Z,27.05
2018-07-28T18:19:04.473Z,26.89
2018-07-28T18:21:33.841Z,26.60
2018-07-28T18:24:03.021Z,25.83
2018-07-28T18:26:32.211Z,24.51
2018-07-28T18:29:01.332Z,23.72
2018-07-28T18:31:30.718Z,23.44
2018-07-28T18:43:46.471Z,23.96
2018-07-28T18:46:21.205Z,24.27
2018-07-28T18:48:50.545Z,24.36
2018-07-28T18:51:21.424Z,24.47
2018-07-28T18:53:50.719Z,24.46
2018-07-28T18:56:21.447Z,24.59
2018-07-28T18:58:51.415Z,24.64
2018-07-28T19:01:21.418Z,24.74
2018-07-28T19:16:55.103Z,24.76
2018-07-28T19:19:24.344Z,24.78
2018-07-28T19:21:53.665Z,24.75
2018-07-28T19:24:23.263Z,24.89
2018-07-28T19:26:54.197Z,24.89
2018-07-28T19:29:28.766Z,24.93
2018-07-28T19:31:57.900Z,24.78
2018-07-28T19:34:27.735Z,25.21
2018-07-28T19:37:02.182Z,25.24
2018-07-28T19:39:35.197Z,25.29
2018-07-28T19:42:09.943Z,25.21
2018-07-28T19:44:39.687Z,25.12
2018-07-28T19:47:09.216Z,25.24
2018-07-28T19:49:39.439Z,25.19
2018-07-28T20:05:09.669Z,25.47
2018-07-28T20:07:40.224Z,25.48
2018-07-28T20:10:09.453Z,25.27
2018-07-28T20:12:39.337Z,25.08
2018-07-28T20:15:08.523Z,24.92
2018-07-28T20:17:37.716Z,24.84
2018-07-28T20:20:07.511Z,25.02
2018-07-28T20:22:37.645Z,24.91
2018-07-28T20:25:06.729Z,24.76
2018-07-28T20:27:38.042Z,24.49
2018-07-28T20:30:08.628Z,24.35
2018-07-28T20:32:37.879Z,24.34
2018-07-28T20:35:10.995Z,24.25
2018-07-28T20:37:40.281Z,24.12
2018-07-28T20:40:27.751Z,24.30
2018-07-28T20:43:01.432Z,24.34
2018-07-28T20:45:30.785Z,24.36
2018-07-28T20:48:01.742Z,24.29
2018-07-28T20:50:30.829Z,24.39
2018-07-28T20:53:00.005Z,24.30
2018-07-28T20:55:29.610Z,24.11
2018-07-28T20:57:58.854Z,24.39
2018-07-28T21:00:28.722Z,24.55
2018-07-28T21:03:09.491Z,24.52
2018-07-28T21:18:39.067Z,24.61
2018-07-28T21:21:08.189Z,24.78
2018-07-28T21:23:37.285Z,24.94
2018-07-28T21:26:06.724Z,24.91
2018-07-28T21:28:36.267Z,25.02
2018-07-28T21:31:06.717Z,25.19
2018-07-28T21:33:40.089Z,25.23
2018-07-28T21:36:09.605Z,25.03
2018-07-28T21:51:39.419Z,24.89
2018-07-28T21:54:09.931Z,24.62
2018-07-28T21:56:40.619Z,24.67
2018-07-28T21:59:09.699Z,24.53
2018-07-28T22:01:43.180Z,24.41
2018-07-28T22:04:17.050Z,24.15
2018-07-28T22:06:46.213Z,24.04
2018-07-28T22:09:15.433Z,23.90
2018-07-28T22:11:44.724Z,24.01
2018-07-28T22:14:13.881Z,24.08
2018-07-28T22:16:43.793Z,24.34
2018-07-28T22:19:13.207Z,24.25
2018-07-28T22:21:43.185Z,24.05
2018-07-28T22:24:16.909Z,23.96
2018-07-28T22:26:46.513Z,23.98
2018-07-28T22:29:17.174Z,24.09
2018-07-28T22:31:47.669Z,24.24
2018-07-28T22:34:17.613Z,24.15
2018-07-28T22:36:47.371Z,24.30
2018-07-28T22:39:17.200Z,24.48
2018-07-28T22:41:46.497Z,24.63
2018-07-28T22:44:15.725Z,24.38
2018-07-28T22:46:45.725Z,24.59
2018-07-28T23:02:15.014Z,24.11
2018-07-28T23:04:45.498Z,24.03
2018-07-28T23:07:15.377Z,24.07
2018-07-28T23:09:47.328Z,24.10
2018-07-28T23:12:20.389Z,24.03
2018-07-28T23:14:49.897Z,24.09
2018-07-28T23:17:21.155Z,23.93
2018-07-28T23:19:50.580Z,23.97
2018-07-28T23:22:24.801Z,24.09
2018-07-28T23:24:54.302Z,23.91
2018-07-28T23:27:23.496Z,23.87
2018-07-28T23:29:52.656Z,23.80
2018-07-28T23:32:21.756Z,23.72
2018-07-28T23:34:52.112Z,23.62
2018-07-28T23:37:21.230Z,23.50
2018-07-28T23:39:50.386Z,23.46
2018-07-28T23:42:19.512Z,23.40
2018-07-28T23:44:48.746Z,23.48
2018-07-28T23:47:18.474Z,23.59
2018-07-28T23:49:47.787Z,23.45
2018-07-28T23:52:16.998Z,23.28
2018-07-28T23:54:46.209Z,23.23
2018-07-28T23:57:17.397Z,23.07
2018-07-28T23:59:46.464Z,23.12
